createdAt,value
2023-10-19T00:01:19.582Z,10.43
2023-10-19T00:03:46.244Z,10.46
2023-10-19T00:06:12.825Z,10.47
2023-10-19T00:08:42.801Z,10.50
2023-10-19T00:11:22.807Z,10.55
2023-10-19T00:13:55.433Z,10.57
2023-10-19T00:16:30.496Z,10.60
2023-10-19T00:19:00.881Z,10.61
2023-10-19T00:21:28.506Z,10.63
2023-10-19T00:24:04.627Z,10.67
2023-10-19T00:26:31.588Z,10.68
2023-10-19T00:28:58.460Z,10.70
2023-10-19T00:31:26.348Z,10.67
2023-10-19T00:33:53.223Z,10.67
2023-10-19T00:36:21.886Z,10.70
2023-10-19T00:38:51.989Z,10.74
2023-10-19T00:41:28.725Z,10.73
2023-10-19T00:44:05.268Z,10.74
2023-10-19T00:46:44.771Z,10.78
2023-10-19T00:49:16.628Z,10.79
2023-10-19T00:51:51.860Z,10.80
2023-10-19T00:54:36.546Z,10.84
2023-10-19T00:57:09.231Z,10.87
2023-10-19T00:59:50.952Z,10.90
2023-10-19T01:02:18.783Z,10.93
2023-10-19T01:04:51.605Z,10.94
2023-10-19T01:07:28.862Z,10.97
2023-10-19T01:10:01.332Z,11.00
2023-10-19T01:12:34.827Z,11.04
2023-10-19T01:15:15.337Z,11.06
2023-10-19T01:17:45.256Z,11.07
2023-10-19T01:20:24.418Z,11.11
2023-10-19T01:23:11.416Z,11.15
2023-10-19T01:26:00.211Z,11.19
2023-10-19T01:28:30.738Z,11.21
2023-10-19T01:30:57.421Z,11.25
2023-10-19T01:33:24.301Z,11.28
2023-10-19T01:36:09.448Z,11.31
2023-10-19T01:38:35.927Z,11.33
2023-10-19T01:41:08.990Z,11.36
2023-10-19T01:43:35.523Z,11.40
2023-10-19T01:46:06.505Z,11.41
2023-10-19T01:48:36.230Z,11.44
2023-10-19T01:51:05.191Z,11.46
2023-10-19T01:53:37.890Z,11.49
2023-10-19T01:56:06.762Z,11.54
2023-10-19T01:58:37.733Z,11.56
2023-10-19T02:01:21.018Z,11.59
2023-10-19T02:03:56.119Z,11.63
2023-10-19T02:06:43.023Z,11.69
2023-10-19T02:09:23.602Z,11.73
2023-10-19T02:11:54.165Z,11.76
2023-10-19T02:14:21.127Z,11.80
2023-10-19T02:16:53.632Z,11.87
2023-10-19T02:19:21.611Z,11.91
2023-10-19T02:21:49.469Z,11.94
2023-10-19T02:24:16.377Z,11.98
2023-10-19T02:26:44.695Z,12.01
2023-10-19T02:29:11.531Z,12.05
2023-10-19T02:31:41.200Z,12.06
2023-10-19T02:34:11.435Z,12.12
2023-10-19T02:36:39.640Z,12.14
2023-10-19T02:39:10.869Z,12.16
2023-10-19T02:41:42.665Z,12.18
2023-10-19T02:44:20.350Z,12.20
2023-10-19T02:46:49.248Z,12.23
2023-10-19T02:49:19.783Z,12.23
2023-10-19T02:51:47.141Z,12.26
2023-10-19T02:54:21.573Z,12.28
2023-10-19T02:56:51.251Z,12.30
2023-10-19T02:59:23.057Z,12.31
2023-10-19T03:01:51.438Z,12.37
2023-10-19T03:04:18.608Z,12.40
2023-10-19T03:06:45.307Z,12.41
2023-10-19T03:09:14.793Z,12.43
2023-10-19T03:11:42.614Z,12.47
2023-10-19T03:14:10.211Z,12.52
2023-10-19T03:16:43.652Z,12.53
2023-10-19T03:19:10.479Z,12.52
2023-10-19T03:21:49.934Z,12.55
2023-10-19T03:24:24.656Z,12.56
2023-10-19T03:26:51.915Z,12.57
2023-10-19T03:29:32.208Z,12.60
2023-10-19T03:32:02.749Z,12.61
2023-10-19T03:34:33.447Z,12.60
2023-10-19T03:37:08.307Z,12.63
2023-10-19T03:39:35.601Z,12.66
2023-10-19T03:42:02.397Z,12.70
2023-10-19T03:44:40.278Z,12.70
2023-10-19T03:47:12.452Z,12.72
2023-10-19T03:49:40.413Z,12.74
2023-10-19T03:52:10.785Z,12.74
2023-10-19T03:54:41.271Z,12.74
2023-10-19T03:57:23.865Z,12.79
2023-10-19T03:59:51.566Z,12.80
2023-10-19T04:02:21.909Z,12.84
2023-10-19T04:04:56.732Z,12.87
2023-10-19T04:07:27.745Z,12.88
2023-10-19T04:10:07.878Z,12.88
2023-10-19T04:12:36.671Z,12.89
2023-10-19T04:15:27.624Z,12.89
2023-10-19T04:17:56.146Z,12.93
2023-10-19T04:20:26.183Z,12.95
2023-10-19T04:22:52.849Z,12.97
2023-10-19T04:25:21.006Z,12.95
2023-10-19T04:27:50.044Z,12.94
2023-10-19T04:30:17.204Z,12.89
2023-10-19T04:32:45.191Z,12.86
2023-10-19T04:35:14.408Z,12.81
2023-10-19T04:37:44.004Z,12.78
2023-10-19T04:40:11.671Z,12.76
2023-10-19T04:42:41.023Z,12.74
2023-10-19T04:45:08.431Z,12.71
2023-10-19T04:47:38.120Z,12.69
2023-10-19T04:50:08.425Z,12.68
2023-10-19T04:52:35.233Z,12.63
2023-10-19T04:55:02.805Z,12.63
2023-10-19T04:57:29.699Z,12.61
2023-10-19T04:59:56.574Z,12.61
2023-10-19T05:02:23.244Z,12.61
2023-10-19T05:04:50.127Z,12.63
2023-10-19T05:07:20.018Z,12.62
2023-10-19T05:09:47.879Z,12.64
2023-10-19T05:12:15.918Z,12.67
2023-10-19T05:14:44.200Z,12.68
2023-10-19T05:17:11.503Z,12.71
2023-10-19T05:19:39.420Z,12.75
2023-10-19T05:22:08.709Z,12.80
2023-10-19T05:24:35.873Z,12.81
2023-10-19T05:27:02.870Z,12.83
2023-10-19T05:29:29.337Z,12.85
2023-10-19T05:31:56.047Z,12.83
2023-10-19T05:34:23.296Z,12.84
2023-10-19T05:36:52.935Z,12.87
2023-10-19T05:39:19.564Z,12.90
2023-10-19T05:41:46.054Z,12.92
2023-10-19T05:44:12.738Z,12.95
2023-10-19T05:46:41.775Z,12.97
2023-10-19T05:49:09.076Z,13.01
2023-10-19T05:51:35.764Z,13.06
2023-10-19T05:54:05.665Z,13.02
2023-10-19T05:56:35.488Z,13.03
2023-10-19T05:59:03.145Z,13.05
2023-10-19T06:01:29.844Z,13.06
2023-10-19T06:03:57.482Z,13.07
2023-10-19T06:06:24.278Z,13.07
2023-10-19T06:08:55.068Z,13.11
2023-10-19T06:11:22.644Z,13.11
2023-10-19T06:13:49.327Z,13.10
2023-10-19T06:16:16.192Z,13.11
2023-10-19T06:18:44.804Z,13.14
2023-10-19T06:21:13.405Z,13.14
2023-10-19T06:23:40.094Z,13.15
2023-10-19T06:26:12.435Z,13.16
2023-10-19T06:28:41.052Z,13.15
2023-10-19T06:31:08.181Z,13.16
2023-10-19T06:33:34.882Z,13.16
2023-10-19T06:36:04.311Z,13.19
2023-10-19T06:38:32.649Z,13.19
2023-10-19T06:41:00.533Z,13.20
2023-10-19T06:43:31.768Z,13.19
2023-10-19T06:45:59.616Z,13.19
2023-10-19T06:48:26.295Z,13.19
2023-10-19T06:50:52.991Z,13.19
2023-10-19T06:53:19.719Z,13.20
2023-10-19T06:55:46.355Z,13.21
2023-10-19T06:58:13.670Z,13.22
2023-10-19T07:00:45.250Z,13.23
2023-10-19T07:03:14.877Z,13.24
2023-10-19T07:05:41.649Z,13.26
2023-10-19T07:08:08.276Z,13.26
2023-10-19T07:10:36.092Z,13.27
2023-10-19T07:13:03.121Z,13.29
2023-10-19T07:15:31.396Z,13.30
2023-10-19T07:17:58.102Z,13.32
2023-10-19T07:20:33.067Z,13.35
2023-10-19T07:23:04.427Z,13.36
2023-10-19T07:25:32.491Z,13.38
2023-10-19T07:28:01.164Z,13.39
2023-10-19T07:30:28.065Z,13.41
2023-10-19T07:33:00.789Z,13.45
2023-10-19T07:35:28.767Z,13.49
2023-10-19T07:37:57.868Z,13.51
2023-10-19T07:40:25.505Z,13.56
2023-10-19T07:42:54.529Z,13.61
2023-10-19T07:45:21.158Z,13.64
2023-10-19T07:47:47.881Z,13.65
2023-10-19T07:50:18.299Z,13.69
2023-10-19T07:52:51.150Z,13.73
2023-10-19T07:55:18.981Z,13.77
2023-10-19T07:57:45.940Z,13.80
2023-10-19T08:00:17.273Z,13.81
2023-10-19T08:02:46.384Z,13.83
2023-10-19T08:05:14.363Z,13.86
2023-10-19T08:07:43.767Z,13.89
2023-10-19T08:10:12.610Z,13.91
2023-10-19T08:12:42.500Z,13.93
2023-10-19T08:15:12.309Z,13.97
2023-10-19T08:17:42.826Z,13.99
2023-10-19T08:20:17.091Z,14.02
2023-10-19T08:22:45.042Z,14.06
2023-10-19T08:25:16.243Z,14.09
2023-10-19T08:27:45.782Z,14.11
2023-10-19T08:30:17.628Z,14.18
2023-10-19T08:32:49.145Z,14.20
2023-10-19T08:35:19.274Z,14.23
2023-10-19T08:37:47.359Z,14.25
2023-10-19T08:40:16.204Z,14.28
2023-10-19T08:42:47.232Z,14.31
2023-10-19T08:45:14.888Z,14.36
2023-10-19T08:47:59.002Z,14.41
2023-10-19T08:50:27.898Z,14.46
2023-10-19T08:52:55.821Z,14.51
2023-10-19T08:55:33.514Z,14.54
2023-10-19T08:58:10.800Z,14.58
2023-10-19T09:00:49.788Z,14.64
2023-10-19T09:03:18.544Z,14.71
2023-10-19T09:05:49.099Z,14.74
2023-10-19T09:08:21.239Z,14.79
2023-10-19T09:10:50.551Z,14.87
2023-10-19T09:13:20.379Z,14.97
2023-10-19T09:15:56.473Z,15.09
2023-10-19T09:18:28.699Z,15.28
2023-10-19T09:21:22.319Z,15.40
2023-10-19T09:23:50.335Z,15.52
2023-10-19T09:26:17.845Z,15.58
2023-10-19T09:28:48.579Z,15.64
2023-10-19T09:31:17.501Z,15.68
2023-10-19T09:33:49.970Z,15.77
2023-10-19T09:36:16.793Z,15.83
2023-10-19T09:38:52.641Z,15.83
2023-10-19T09:41:23.302Z,15.84
2023-10-19T09:43:51.680Z,15.83
2023-10-19T09:46:32.624Z,15.85
2023-10-19T09:48:59.406Z,15.88
2023-10-19T09:51:26.299Z,15.93
2023-10-19T09:54:01.948Z,15.98
2023-10-19T09:56:36.969Z,16.05
2023-10-19T09:59:08.148Z,16.32
2023-10-19T10:02:15.716Z,16.62
2023-10-19T10:04:43.494Z,16.91
2023-10-19T10:07:10.658Z,17.01
2023-10-19T10:09:41.413Z,16.99
2023-10-19T10:12:16.306Z,16.91
2023-10-19T10:14:55.601Z,16.85
2023-10-19T10:17:24.085Z,16.79
2023-10-19T10:19:50.664Z,16.73
2023-10-19T10:22:22.492Z,16.71
2023-10-19T10:24:57.140Z,16.70
2023-10-19T10:27:24.688Z,16.80
2023-10-19T10:29:59.755Z,16.86
2023-10-19T10:32:49.280Z,16.91
2023-10-19T10:35:42.157Z,16.98
2023-10-19T10:38:15.865Z,17.00
2023-10-19T10:40:52.021Z,17.02
2023-10-19T10:43:20.776Z,16.99
2023-10-19T10:45:47.576Z,16.98
2023-10-19T10:48:20.319Z,16.96
2023-10-19T10:50:47.689Z,16.95
2023-10-19T10:53:18.571Z,16.96
2023-10-19T10:55:45.144Z,16.98
2023-10-19T10:58:16.879Z,17.00
2023-10-19T11:00:44.587Z,16.99
2023-10-19T11:03:11.359Z,17.01
2023-10-19T11:05:39.110Z,17.07
2023-10-19T11:08:25.680Z,17.17
2023-10-19T11:10:54.150Z,17.22
2023-10-19T11:13:25.419Z,17.25
2023-10-19T11:15:59.755Z,17.29
2023-10-19T11:18:46.613Z,17.32
2023-10-19T11:21:15.867Z,17.39
2023-10-19T11:23:43.700Z,17.44
2023-10-19T11:26:12.023Z,17.49
2023-10-19T11:28:48.744Z,17.54
2023-10-19T11:31:19.449Z,17.60
2023-10-19T11:33:50.012Z,17.69
2023-10-19T11:36:17.438Z,17.75
2023-10-19T11:38:46.041Z,17.82
2023-10-19T11:41:16.719Z,17.96
2023-10-19T11:43:43.917Z,18.23
2023-10-19T11:46:11.124Z,18.35
2023-10-19T11:48:37.852Z,18.42
2023-10-19T11:51:05.001Z,18.69
2023-10-19T11:53:37.764Z,18.94
2023-10-19T11:56:07.118Z,18.95
2023-10-19T11:58:35.827Z,18.87
2023-10-19T12:01:06.334Z,18.75
2023-10-19T12:03:36.411Z,18.71
2023-10-19T12:06:05.445Z,18.80
2023-10-19T12:08:32.017Z,18.79
2023-10-19T12:10:58.824Z,18.72
2023-10-19T12:13:25.534Z,18.60
2023-10-19T12:15:56.282Z,18.54
2023-10-19T12:18:23.036Z,18.50
2023-10-19T12:20:49.633Z,18.35
2023-10-19T12:23:16.313Z,18.28
2023-10-19T12:28:16.851Z,18.21
2023-10-19T12:30:43.699Z,18.14
2023-10-19T12:33:13.478Z,18.12
2023-10-19T12:35:58.790Z,18.08
2023-10-19T12:38:26.482Z,18.05
2023-10-19T12:40:55.022Z,18.05
2023-10-19T12:43:24.420Z,18.03
2023-10-19T12:45:59.015Z,18.01
2023-10-19T12:48:34.230Z,17.97
2023-10-19T12:51:02.678Z,17.93
2023-10-19T12:53:30.855Z,17.86
2023-10-19T12:55:57.626Z,17.77
2023-10-19T12:58:24.199Z,17.77
2023-10-19T13:00:50.728Z,17.76
2023-10-19T13:03:20.120Z,17.75
2023-10-19T13:05:47.878Z,17.67
2023-10-19T13:08:15.182Z,17.58
2023-10-19T13:10:44.131Z,17.51
2023-10-19T13:13:16.039Z,17.42
2023-10-19T13:15:46.081Z,17.37
2023-10-19T13:18:14.516Z,17.32
2023-10-19T13:20:45.344Z,17.24
2023-10-19T13:23:18.253Z,17.18
2023-10-19T13:25:51.080Z,17.14
2023-10-19T13:28:18.990Z,17.12
2023-10-19T13:30:54.471Z,17.10
2023-10-19T13:33:22.543Z,17.07
2023-10-19T13:35:49.704Z,17.03
2023-10-19T13:38:18.165Z,17.05
2023-10-19T13:40:48.236Z,17.05
2023-10-19T13:43:15.402Z,17.01
2023-10-19T13:45:46.318Z,16.98
2023-10-19T13:48:14.373Z,16.96
2023-10-19T13:50:49.037Z,16.94
2023-10-19T13:53:16.812Z,16.91
2023-10-19T13:55:43.964Z,16.90
2023-10-19T13:58:10.574Z,16.91
2023-10-19T14:00:36.975Z,16.96
2023-10-19T14:03:05.832Z,17.01
2023-10-19T14:05:49.313Z,17.08
2023-10-19T14:08:18.037Z,17.11
2023-10-19T14:10:44.929Z,17.07
2023-10-19T14:13:15.736Z,17.02
2023-10-19T14:15:43.381Z,16.97
2023-10-19T14:18:11.408Z,16.93
2023-10-19T14:20:39.949Z,16.88
2023-10-19T14:23:06.914Z,16.85
2023-10-19T14:25:38.184Z,16.82
2023-10-19T14:28:07.946Z,16.80
2023-10-19T14:30:34.928Z,16.81
2023-10-19T14:33:01.700Z,16.79
2023-10-19T14:35:28.764Z,16.78
2023-10-19T14:37:57.558Z,16.76
2023-10-19T14:40:27.338Z,16.73
2023-10-19T14:42:55.402Z,16.72
2023-10-19T14:45:27.008Z,16.68
2023-10-19T14:48:00.637Z,16.66
2023-10-19T14:50:28.276Z,16.66
2023-10-19T14:52:58.025Z,16.65
2023-10-19T14:55:25.259Z,16.64
2023-10-19T14:57:57.240Z,16.62
2023-10-19T15:00:35.818Z,16.61
2023-10-19T15:03:08.915Z,16.59
2023-10-19T15:05:36.965Z,16.59
2023-10-19T15:08:08.441Z,16.57
2023-10-19T15:10:40.819Z,16.55
2023-10-19T15:13:07.342Z,16.53
2023-10-19T15:15:34.076Z,16.50
2023-10-19T15:18:00.937Z,16.47
2023-10-19T15:20:29.214Z,16.45
2023-10-19T15:22:56.008Z,16.41
2023-10-19T15:25:26.026Z,16.38
2023-10-19T15:27:53.155Z,16.38
2023-10-19T15:30:21.603Z,16.37
2023-10-19T15:32:49.584Z,16.36
2023-10-19T15:35:22.278Z,16.35
2023-10-19T15:37:50.606Z,16.35
2023-10-19T15:40:21.035Z,16.35
2023-10-19T15:42:48.142Z,16.37
2023-10-19T15:45:19.426Z,16.37
2023-10-19T15:47:49.497Z,16.40
2023-10-19T15:50:41.592Z,16.46
2023-10-19T15:53:08.546Z,16.54
2023-10-19T15:55:35.125Z,16.60
2023-10-19T15:58:01.609Z,16.61
2023-10-19T16:00:29.249Z,16.63
2023-10-19T16:02:55.933Z,16.62
2023-10-19T16:05:23.089Z,16.60
2023-10-19T16:07:51.063Z,16.60
2023-10-19T16:10:18.599Z,16.57
2023-10-19T16:12:45.157Z,16.51
2023-10-19T16:15:15.985Z,16.45
2023-10-19T16:17:44.530Z,16.39
2023-10-19T16:20:14.118Z,16.31
2023-10-19T16:22:41.038Z,16.24
2023-10-19T16:25:08.052Z,16.20
2023-10-19T16:27:34.770Z,16.11
2023-10-19T16:30:02.337Z,16.05
2023-10-19T16:32:31.524Z,15.98
2023-10-19T16:34:58.898Z,15.96
2023-10-19T16:37:26.009Z,15.92
2023-10-19T16:39:53.933Z,15.84
2023-10-19T16:42:20.406Z,15.79
2023-10-19T16:44:47.540Z,15.72
2023-10-19T16:47:14.079Z,15.69
2023-10-19T16:49:40.601Z,15.66
2023-10-19T16:52:08.280Z,15.63
2023-10-19T16:54:35.003Z,15.60
2023-10-19T16:57:02.622Z,15.58
2023-10-19T16:59:30.764Z,15.55
2023-10-19T17:01:57.938Z,15.54
2023-10-19T17:04:26.719Z,15.52
2023-10-19T17:06:53.292Z,15.51
2023-10-19T17:09:21.604Z,15.50
2023-10-19T17:11:49.637Z,15.49
2023-10-19T17:14:17.310Z,15.48
2023-10-19T17:16:44.137Z,15.47
2023-10-19T17:19:11.743Z,15.45
2023-10-19T17:21:39.641Z,15.44
2023-10-19T17:24:10.156Z,15.46
2023-10-19T17:26:36.660Z,15.47
2023-10-19T17:29:03.356Z,15.47
2023-10-19T17:31:30.527Z,15.49
2023-10-19T17:33:58.004Z,15.50
2023-10-19T17:36:24.588Z,15.48
2023-10-19T17:38:51.085Z,15.46
2023-10-19T17:41:17.616Z,15.45
2023-10-19T17:43:44.425Z,15.42
2023-10-19T17:46:11.738Z,15.44
2023-10-19T17:48:39.249Z,15.42
2023-10-19T17:51:13.894Z,15.41
2023-10-19T17:53:40.684Z,15.40
2023-10-19T17:56:07.869Z,15.40
2023-10-19T17:58:35.295Z,15.39
2023-10-19T18:01:05.843Z,15.36
2023-10-19T18:03:37.594Z,15.35
2023-10-19T18:06:07.659Z,15.35
2023-10-19T18:08:35.268Z,15.33
2023-10-19T18:11:01.877Z,15.30
2023-10-19T18:13:28.432Z,15.28
2023-10-19T18:15:55.021Z,15.25
2023-10-19T18:18:22.488Z,15.22
2023-10-19T18:20:49.351Z,15.18
2023-10-19T18:23:16.156Z,15.14
2023-10-19T18:25:44.403Z,15.08
2023-10-19T18:28:11.201Z,15.04
2023-10-19T18:30:37.854Z,14.98
2023-10-19T18:33:06.100Z,14.95
2023-10-19T18:35:33.641Z,14.91
2023-10-19T18:38:00.321Z,14.86
2023-10-19T18:40:34.289Z,14.81
2023-10-19T18:43:01.368Z,14.75
2023-10-19T18:45:28.043Z,14.72
2023-10-19T18:47:54.800Z,14.67
2023-10-19T18:50:34.455Z,14.62
2023-10-19T18:53:02.086Z,14.60
2023-10-19T18:55:32.448Z,14.56
2023-10-19T18:58:02.218Z,14.54
2023-10-19T19:00:29.614Z,14.50
2023-10-19T19:02:56.746Z,14.48
2023-10-19T19:05:23.296Z,14.43
2023-10-19T19:07:49.973Z,14.37
2023-10-19T19:10:17.093Z,14.34
2023-10-19T19:12:44.395Z,14.29
2023-10-19T19:15:12.329Z,14.28
2023-10-19T19:17:40.290Z,14.26
2023-10-19T19:20:12.690Z,14.23
2023-10-19T19:22:40.317Z,14.21
2023-10-19T19:25:08.685Z,14.20
2023-10-19T19:27:35.487Z,14.20
2023-10-19T19:30:02.030Z,14.20
2023-10-19T19:32:28.899Z,14.21
2023-10-19T19:34:56.051Z,14.22
2023-10-19T19:37:22.645Z,14.19
2023-10-19T19:39:49.137Z,14.18
2023-10-19T19:42:15.595Z,14.16
2023-10-19T19:44:43.150Z,14.13
2023-10-19T19:47:10.069Z,14.10
2023-10-19T19:49:36.592Z,14.07
2023-10-19T19:52:03.127Z,14.05
2023-10-19T19:54:29.771Z,14.05
2023-10-19T19:56:56.738Z,14.03
2023-10-19T19:59:23.663Z,13.99
2023-10-19T20:01:50.365Z,13.96
2023-10-19T20:04:16.962Z,13.94
2023-10-19T20:06:43.624Z,13.91
2023-10-19T20:09:12.700Z,13.91
2023-10-19T20:11:40.439Z,13.89
2023-10-19T20:14:07.957Z,13.86
2023-10-19T20:16:34.769Z,13.85
2023-10-19T20:19:01.987Z,13.85
2023-10-19T20:21:29.366Z,13.84
2023-10-19T20:23:57.679Z,13.82
2023-10-19T20:26:24.532Z,13.81
2023-10-19T20:28:51.133Z,13.78
2023-10-19T20:31:17.645Z,13.79
2023-10-19T20:33:44.331Z,13.76
2023-10-19T20:36:10.824Z,13.78
2023-10-19T20:38:37.436Z,13.78
2023-10-19T20:41:04.033Z,13.77
2023-10-19T20:43:30.515Z,13.78
2023-10-19T20:45:57.023Z,13.78
2023-10-19T20:48:24.093Z,13.77
2023-10-19T20:50:50.559Z,13.75
2023-10-19T20:53:18.162Z,13.75
2023-10-19T20:55:45.909Z,13.74
2023-10-19T20:58:13.636Z,13.74
2023-10-19T21:00:40.337Z,13.72
2023-10-19T21:03:06.944Z,13.72
2023-10-19T21:05:33.749Z,13.72
2023-10-19T21:08:00.478Z,13.72
2023-10-19T21:10:27.114Z,13.71
2023-10-19T21:12:53.763Z,13.72
2023-10-19T21:15:20.257Z,13.72
2023-10-19T21:17:50.491Z,13.73
2023-10-19T21:20:19.254Z,13.74
2023-10-19T21:22:47.544Z,13.75
2023-10-19T21:25:18.908Z,13.76
2023-10-19T21:27:47.884Z,13.78
2023-10-19T21:30:14.829Z,13.81
2023-10-19T21:32:43.217Z,13.83
2023-10-19T21:35:10.612Z,13.86
2023-10-19T21:37:37.542Z,13.89
2023-10-19T21:40:05.624Z,13.93
2023-10-19T21:42:32.587Z,13.96
2023-10-19T21:44:59.348Z,13.97
2023-10-19T21:47:26.992Z,13.98
2023-10-19T21:49:56.909Z,14.02
2023-10-19T21:52:26.182Z,14.03
2023-10-19T21:54:53.925Z,14.07
2023-10-19T21:57:20.451Z,14.08
2023-10-19T21:59:47.190Z,14.11
2023-10-19T22:02:14.133Z,14.11
2023-10-19T22:04:42.603Z,14.11
2023-10-19T22:07:09.163Z,14.11
2023-10-19T22:09:35.746Z,14.11
2023-10-19T22:12:02.230Z,14.11
2023-10-19T22:14:29.534Z,14.10
2023-10-19T22:16:57.481Z,14.10
2023-10-19T22:19:28.186Z,14.10
2023-10-19T22:21:57.645Z,14.10
2023-10-19T22:24:24.334Z,14.09
2023-10-19T22:26:54.134Z,14.09
2023-10-19T22:29:20.752Z,14.10
2023-10-19T22:31:51.981Z,14.11
2023-10-19T22:34:19.400Z,14.12
2023-10-19T22:36:45.944Z,14.12
2023-10-19T22:39:13.621Z,14.13
2023-10-19T22:41:40.114Z,14.16
2023-10-19T22:44:08.254Z,14.18
2023-10-19T22:46:39.892Z,14.19
2023-10-19T22:49:06.905Z,14.19
2023-10-19T22:51:33.540Z,14.20
2023-10-19T22:54:00.205Z,14.20
2023-10-19T22:56:26.836Z,14.22
2023-10-19T22:58:54.269Z,14.23
2023-10-19T23:01:21.869Z,14.24
2023-10-19T23:03:48.869Z,14.24
2023-10-19T23:06:15.551Z,14.27
2023-10-19T23:08:42.712Z,14.26
2023-10-19T23:11:10.615Z,14.27
2023-10-19T23:13:39.317Z,14.29
2023-10-19T23:16:07.051Z,14.29
2023-10-19T23:18:36.871Z,14.30
2023-10-19T23:21:04.728Z,14.31
2023-10-19T23:23:32.054Z,14.31
2023-10-19T23:26:02.802Z,14.32
2023-10-19T23:28:30.429Z,14.32
2023-10-19T23:31:08.205Z,14.32
2023-10-19T23:33:34.983Z,14.31
2023-10-19T23:36:02.404Z,14.32
2023-10-19T23:38:29.133Z,14.32
2023-10-19T23:40:56.653Z,14.32
2023-10-19T23:43:23.858Z,14.31
2023-10-19T23:45:51.595Z,14.31
2023-10-19T23:48:21.489Z,14.31
2023-10-19T23:50:49.038Z,14.31
2023-10-19T23:53:18.834Z,14.30
2023-10-19T23:55:48.110Z,14.31
2023-10-19T23:58:15.894Z,14.31
